Ah Gwah Ching, Minnesota
Current Conditions -  °F | °C
As of 4:55 PM on Saturday 25 Oct 2014 (Local Time) from KY49 Reporting Station
Clear Clear  
Wind Chill: 55°   Ceiling: Unl
Heat Index: 55°   Visibility: 10mi
Dew Point: 25°   Wind: 10mph
Humidity: 32%   Direction: 290°WNW
Pressure: 30.03"   Gusts: 22mph
Location:  47.08°N, 94.57°W
Report Text: KY49 252155Z AUTO 29009G19KT 10SM CLR 13/M04 A3003 RMK AO2 T01261040
Loading
Personal Weather Stations






























Interactive Weather Map New forecast layout! Learn more

10-Day Weather Forecast

Advertisements
Track Severe Weather on mobile